createdAt,value
2022-09-07T00:04:17.657Z,2.4
2022-09-07T00:10:17.800Z,2.6
2022-09-07T00:16:39.468Z,2.8
2022-09-07T00:22:39.768Z,2.3
2022-09-07T00:34:31.289Z,4
2022-09-07T00:40:30.785Z,3.6
2022-09-07T00:58:30.393Z,4.3
2022-09-07T01:04:49.529Z,4.6
2022-09-07T01:11:12.189Z,4.7
2022-09-07T01:17:10.423Z,5.3
2022-09-07T01:23:07.083Z,4.1
2022-09-07T01:29:00.517Z,6.4
2022-09-07T01:34:59.799Z,6.1
2022-09-07T01:41:14.886Z,5.3
2022-09-07T01:47:18.877Z,5.9
2022-09-07T01:53:39.667Z,5.2
2022-09-07T01:59:47.595Z,4.8
2022-09-07T02:06:11.170Z,5.7
2022-09-07T02:19:05.820Z,5.6
2022-09-07T02:25:03.164Z,3.4
2022-09-07T02:31:23.860Z,5.3
2022-09-07T02:37:28.350Z,6.2
2022-09-07T02:43:30.716Z,5.1
2022-09-07T02:49:47.942Z,5.4
2022-09-07T02:55:42.956Z,6.7
2022-09-07T03:01:54.229Z,6.7
2022-09-07T03:08:01.807Z,5.7
2022-09-07T03:14:20.014Z,6
2022-09-07T03:20:12.640Z,6.1
2022-09-07T03:26:10.165Z,5.7
2022-09-07T03:32:08.379Z,4.5
2022-09-07T03:38:01.696Z,6.2
2022-09-07T03:44:01.765Z,5.8
2022-09-07T03:50:00.316Z,5
2022-09-07T03:56:18.086Z,9.4
2022-09-07T04:02:17.773Z,6.6
2022-09-07T04:08:27.122Z,6.7
2022-09-07T04:14:30.803Z,7.1
2022-09-07T04:20:28.037Z,14.9
2022-09-07T04:26:19.092Z,14.2
2022-09-07T04:32:16.012Z,15.7
2022-09-07T04:38:13.914Z,18.2
2022-09-07T04:44:21.944Z,17
2022-09-07T04:50:24.861Z,21.5
2022-09-07T04:56:22.249Z,20.3
2022-09-07T05:02:25.206Z,21.8
2022-09-07T05:08:20.385Z,21
2022-09-07T05:14:12.813Z,24.5
2022-09-07T05:20:03.818Z,25.7
2022-09-07T05:25:53.301Z,23.9
2022-09-07T05:31:41.978Z,22.6
2022-09-07T05:37:31.682Z,21.9
2022-09-07T05:43:21.671Z,29.2
2022-09-07T05:49:11.615Z,25
2022-09-07T05:55:34.374Z,24.2
2022-09-07T06:01:21.821Z,26.4
2022-09-07T06:07:27.936Z,29.4
2022-09-07T06:13:16.533Z,30.1
2022-09-07T06:19:08.456Z,31.9
2022-09-07T06:24:58.979Z,25.2
2022-09-07T06:30:50.137Z,22.7
2022-09-07T06:36:41.479Z,24
2022-09-07T06:42:34.797Z,30.7
2022-09-07T06:48:26.482Z,29
2022-09-07T06:55:04.943Z,24.5
2022-09-07T07:00:53.315Z,22.8
2022-09-07T07:06:45.053Z,20.7
2022-09-07T07:18:26.041Z,19.3
2022-09-07T07:24:18.298Z,14.4
2022-09-07T07:30:09.826Z,12.1
2022-09-07T07:36:00.704Z,15.7
2022-09-07T07:42:07.777Z,10.7
2022-09-07T07:47:58.177Z,10
2022-09-07T07:53:49.218Z,7
2022-09-07T07:59:40.648Z,8.2
2022-09-07T08:05:32.970Z,10.4
2022-09-07T08:11:27.962Z,10.6
2022-09-07T08:17:18.648Z,9.3
2022-09-07T08:23:10.112Z,7.8
2022-09-07T08:29:02.235Z,6.6
2022-09-07T08:34:57.402Z,7.7
2022-09-07T08:40:52.947Z,8.3
2022-09-07T08:46:48.114Z,9.4
2022-09-07T08:52:45.922Z,8.4
2022-09-07T08:59:06.177Z,7.3
2022-09-07T09:05:26.784Z,7
2022-09-07T09:11:16.313Z,7.3
2022-09-07T09:17:07.814Z,7.3
2022-09-07T09:23:04.270Z,6.8
2022-09-07T09:28:55.637Z,7.2
2022-09-07T09:34:46.421Z,7.4
2022-09-07T09:40:37.575Z,6.4
2022-09-07T09:46:30.685Z,5
2022-09-07T09:52:54.837Z,6.7
2022-09-07T10:00:10.469Z,5.1
2022-09-07T10:06:10.877Z,3
2022-09-07T10:12:16.653Z,4.3
2022-09-07T10:18:06.703Z,5.7
2022-09-07T10:23:59.024Z,2.9
2022-09-07T10:29:49.666Z,6
2022-09-07T10:35:43.039Z,4.3
2022-09-07T10:41:36.364Z,3.8
2022-09-07T10:47:30.737Z,4.1
2022-09-07T10:53:46.791Z,5.1
2022-09-07T11:00:16.767Z,3.6
2022-09-07T11:06:08.049Z,6.5
2022-09-07T11:14:18.710Z,3.7
2022-09-07T11:20:07.222Z,5.3
2022-09-07T11:26:00.253Z,4.1
2022-09-07T11:31:51.145Z,4.8
2022-09-07T11:37:45.443Z,3.4
2022-09-07T11:43:36.155Z,5.8
2022-09-07T11:49:33.636Z,3.4
2022-09-07T11:55:45.374Z,3.9
2022-09-07T12:20:05.652Z,3.6
2022-09-07T12:26:12.661Z,4
2022-09-07T12:45:03.944Z,2.1
2022-09-07T12:51:07.830Z,3.8
2022-09-07T13:04:00.106Z,3.1
2022-09-07T13:09:48.733Z,3.8
2022-09-07T13:21:42.512Z,2.9
2022-09-07T13:27:31.918Z,3.2
2022-09-07T13:33:34.709Z,1.9
2022-09-07T13:39:35.132Z,2.2
2022-09-07T13:45:41.361Z,3.2
2022-09-07T13:51:33.920Z,2.2
2022-09-07T13:57:37.000Z,3.3
2022-09-07T14:03:32.267Z,2.6
2022-09-07T14:09:30.315Z,3
2022-09-07T14:15:25.053Z,2.2
2022-09-07T14:21:19.012Z,2.8
2022-09-07T14:27:09.245Z,4.5
2022-09-07T14:33:02.429Z,2.2
2022-09-07T14:39:25.449Z,2.3
2022-09-07T14:45:15.508Z,2
2022-09-07T14:51:40.416Z,2.1
2022-09-07T14:57:28.378Z,3.1
2022-09-07T15:03:18.747Z,2.2
2022-09-07T15:09:10.737Z,2.6
2022-09-07T15:15:01.179Z,2.1
2022-09-07T15:20:50.933Z,2
2022-09-07T15:27:12.007Z,3.6
2022-09-07T15:33:02.300Z,2.7
2022-09-07T15:39:08.668Z,3.2
2022-09-07T15:45:01.888Z,2.3
2022-09-07T15:50:51.729Z,3.2
2022-09-07T15:58:12.906Z,3.4
2022-09-07T16:04:04.547Z,3.1
2022-09-07T16:10:02.344Z,3.4
2022-09-07T16:15:53.435Z,3.5
2022-09-07T16:21:45.690Z,3.8
2022-09-07T16:27:38.386Z,3.6
2022-09-07T16:33:40.523Z,3.1
2022-09-07T16:39:35.481Z,2.2
2022-09-07T17:02:56.121Z,2.5
2022-09-07T17:08:44.656Z,3.4
2022-09-07T17:14:33.761Z,4
2022-09-07T17:20:25.814Z,2.2
2022-09-07T17:26:17.116Z,3.4
2022-09-07T17:32:39.036Z,4.1
2022-09-07T17:39:28.645Z,4.4
2022-09-07T17:45:17.452Z,4
2022-09-07T17:51:08.248Z,4.2
2022-09-07T17:56:59.130Z,2.8
2022-09-07T18:02:51.011Z,4.9
2022-09-07T18:08:41.954Z,4.4
2022-09-07T18:14:32.690Z,4.7
2022-09-07T18:20:23.966Z,4
2022-09-07T18:26:15.784Z,4.9
2022-09-07T18:32:10.175Z,3.1
2022-09-07T18:38:03.165Z,3.8
2022-09-07T18:43:55.240Z,3.9
2022-09-07T18:49:47.629Z,4.6
2022-09-07T18:55:38.505Z,6.2
2022-09-07T19:01:34.054Z,3.6
2022-09-07T19:07:31.199Z,4.1
2022-09-07T19:13:21.899Z,5.4
2022-09-07T19:19:11.978Z,5.3
2022-09-07T19:25:03.266Z,4.2
2022-09-07T19:30:53.342Z,3.9
2022-09-07T19:36:43.840Z,2.9
2022-09-07T19:42:33.663Z,4.7
2022-09-07T19:48:24.174Z,6.2
2022-09-07T19:54:14.604Z,4.5
2022-09-07T20:00:05.471Z,4.4
2022-09-07T20:05:56.551Z,6.5
2022-09-07T20:11:51.094Z,6.3
2022-09-07T20:17:40.740Z,4.8
2022-09-07T20:23:30.758Z,6.3
2022-09-07T20:29:32.858Z,4.9
2022-09-07T20:35:21.618Z,5
2022-09-07T20:41:11.925Z,5.1
2022-09-07T20:47:03.904Z,5.1
2022-09-07T20:52:54.369Z,8.3
2022-09-07T20:58:45.676Z,4.3
2022-09-07T21:04:37.133Z,7.3
2022-09-07T21:10:28.874Z,5.9
2022-09-07T21:16:19.819Z,6.9
2022-09-07T21:22:10.734Z,6.3
2022-09-07T21:28:01.751Z,5
2022-09-07T21:33:52.652Z,4.3
2022-09-07T21:39:44.140Z,6.6
2022-09-07T21:45:34.993Z,5.5
2022-09-07T21:51:27.506Z,8
2022-09-07T21:57:18.275Z,6.4
2022-09-07T22:03:09.623Z,5.1
2022-09-07T22:09:00.698Z,4.8
2022-09-07T22:14:51.260Z,4.8
2022-09-07T22:20:41.547Z,5.7
2022-09-07T22:26:32.967Z,5
2022-09-07T22:32:23.971Z,7.9
2022-09-07T22:38:14.835Z,6.2
2022-09-07T22:44:06.455Z,6.5
2022-09-07T22:49:59.213Z,5.7
2022-09-07T22:55:52.170Z,6.5
2022-09-07T23:01:47.549Z,5.8
2022-09-07T23:07:44.354Z,5.4
2022-09-07T23:13:57.828Z,4.6
